sensor_id;sensor_type;location;lat;lon;timestamp;P1;durP1;ratioP1;P2;durP2;ratioP2
32094;SDS011;18608;53.688;10.748;2023-09-07T00:02:15;9.43;;;6.30;;
32094;SDS011;18608;53.688;10.748;2023-09-07T00:04:41;8.93;;;7.37;;
32094;SDS011;18608;53.688;10.748;2023-09-07T00:07:08;7.67;;;6.17;;
32094;SDS011;18608;53.688;10.748;2023-09-07T00:09:34;6.90;;;6.20;;
32094;SDS011;18608;53.688;10.748;2023-09-07T00:12:00;6.23;;;5.73;;
32094;SDS011;18608;53.688;10.748;2023-09-07T00:14:26;8.50;;;6.53;;
32094;SDS011;18608;53.688;10.748;2023-09-07T00:16:52;5.93;;;5.40;;
32094;SDS011;18608;53.688;10.748;2023-09-07T00:19:18;8.10;;;5.80;;
32094;SDS011;18608;53.688;10.748;2023-09-07T00:21:44;12.03;;;7.00;;
32094;SDS011;18608;53.688;10.748;2023-09-07T00:24:10;6.40;;;5.80;;
32094;SDS011;18608;53.688;10.748;2023-09-07T00:26:36;5.40;;;5.00;;
32094;SDS011;18608;53.688;10.748;2023-09-07T00:29:02;7.20;;;6.60;;
32094;SDS011;18608;53.688;10.748;2023-09-07T00:31:28;8.83;;;6.77;;
32094;SDS011;18608;53.688;10.748;2023-09-07T00:33:54;7.53;;;6.30;;
32094;SDS011;18608;53.688;10.748;2023-09-07T00:36:20;23.47;;;6.43;;
32094;SDS011;18608;53.688;10.748;2023-09-07T00:38:46;5.40;;;4.90;;
32094;SDS011;18608;53.688;10.748;2023-09-07T00:41:12;8.63;;;6.70;;
32094;SDS011;18608;53.688;10.748;2023-09-07T00:43:38;8.43;;;5.50;;
32094;SDS011;18608;53.688;10.748;2023-09-07T00:46:06;13.00;;;7.27;;
32094;SDS011;18608;53.688;10.748;2023-09-07T00:48:31;7.90;;;6.20;;
32094;SDS011;18608;53.688;10.748;2023-09-07T00:50:59;10.30;;;5.60;;
32094;SDS011;18608;53.688;10.748;2023-09-07T00:53:25;6.23;;;5.60;;
32094;SDS011;18608;53.688;10.748;2023-09-07T00:55:52;6.60;;;6.00;;
32094;SDS011;18608;53.688;10.748;2023-09-07T00:58:19;6.73;;;6.13;;
32094;SDS011;18608;53.688;10.748;2023-09-07T01:00:46;7.80;;;6.07;;
32094;SDS011;18608;53.688;10.748;2023-09-07T01:03:12;6.73;;;6.13;;
32094;SDS011;18608;53.688;10.748;2023-09-07T01:08:46;6.20;;;5.60;;
32094;SDS011;18608;53.688;10.748;2023-09-07T01:11:17;6.53;;;5.80;;
32094;SDS011;18608;53.688;10.748;2023-09-07T01:13:47;8.20;;;6.50;;
32094;SDS011;18608;53.688;10.748;2023-09-07T01:16:13;7.43;;;6.73;;
32094;SDS011;18608;53.688;10.748;2023-09-07T01:18:40;7.60;;;7.00;;
32094;SDS011;18608;53.688;10.748;2023-09-07T01:21:06;9.90;;;6.50;;
32094;SDS011;18608;53.688;10.748;2023-09-07T01:23:35;6.40;;;5.77;;
32094;SDS011;18608;53.688;10.748;2023-09-07T01:26:01;7.17;;;6.53;;
32094;SDS011;18608;53.688;10.748;2023-09-07T01:28:27;16.00;;;6.10;;
32094;SDS011;18608;53.688;10.748;2023-09-07T01:30:53;7.83;;;5.83;;
32094;SDS011;18608;53.688;10.748;2023-09-07T01:33:19;7.70;;;6.37;;
32094;SDS011;18608;53.688;10.748;2023-09-07T01:35:45;9.30;;;6.97;;
32094;SDS011;18608;53.688;10.748;2023-09-07T01:38:11;8.90;;;7.10;;
32094;SDS011;18608;53.688;10.748;2023-09-07T01:40:37;7.00;;;6.30;;
32094;SDS011;18608;53.688;10.748;2023-09-07T01:43:03;8.20;;;6.83;;
32094;SDS011;18608;53.688;10.748;2023-09-07T01:45:29;8.00;;;6.40;;
32094;SDS011;18608;53.688;10.748;2023-09-07T01:47:55;10.20;;;6.20;;
32094;SDS011;18608;53.688;10.748;2023-09-07T01:50:21;8.33;;;7.53;;
32094;SDS011;18608;53.688;10.748;2023-09-07T01:52:47;11.60;;;7.60;;
32094;SDS011;18608;53.688;10.748;2023-09-07T01:55:13;7.80;;;7.10;;
32094;SDS011;18608;53.688;10.748;2023-09-07T01:57:39;10.37;;;8.13;;
32094;SDS011;18608;53.688;10.748;2023-09-07T02:00:06;8.00;;;6.93;;
32094;SDS011;18608;53.688;10.748;2023-09-07T02:02:32;10.70;;;7.43;;
32094;SDS011;18608;53.688;10.748;2023-09-07T02:04:58;15.03;;;8.50;;
32094;SDS011;18608;53.688;10.748;2023-09-07T02:07:24;8.80;;;7.67;;
32094;SDS011;18608;53.688;10.748;2023-09-07T02:09:50;9.90;;;7.70;;
32094;SDS011;18608;53.688;10.748;2023-09-07T02:12:16;9.33;;;8.37;;
32094;SDS011;18608;53.688;10.748;2023-09-07T02:14:42;9.60;;;7.13;;
32094;SDS011;18608;53.688;10.748;2023-09-07T02:17:08;12.50;;;8.07;;
32094;SDS011;18608;53.688;10.748;2023-09-07T02:19:34;9.77;;;8.30;;
32094;SDS011;18608;53.688;10.748;2023-09-07T02:22:00;9.57;;;7.30;;
32094;SDS011;18608;53.688;10.748;2023-09-07T02:24:26;9.10;;;8.00;;
32094;SDS011;18608;53.688;10.748;2023-09-07T02:26:52;8.30;;;7.50;;
32094;SDS011;18608;53.688;10.748;2023-09-07T02:29:18;14.27;;;6.97;;
32094;SDS011;18608;53.688;10.748;2023-09-07T02:31:44;18.60;;;8.27;;
32094;SDS011;18608;53.688;10.748;2023-09-07T02:34:10;9.00;;;8.13;;
32094;SDS011;18608;53.688;10.748;2023-09-07T02:36:36;12.40;;;8.07;;
32094;SDS011;18608;53.688;10.748;2023-09-07T02:39:02;8.77;;;7.70;;
32094;SDS011;18608;53.688;10.748;2023-09-07T02:41:28;10.20;;;7.83;;
32094;SDS011;18608;53.688;10.748;2023-09-07T02:43:54;9.47;;;8.57;;
32094;SDS011;18608;53.688;10.748;2023-09-07T02:46:21;13.77;;;7.90;;
32094;SDS011;18608;53.688;10.748;2023-09-07T02:48:47;7.77;;;7.07;;
32094;SDS011;18608;53.688;10.748;2023-09-07T02:51:13;8.13;;;7.40;;
32094;SDS011;18608;53.688;10.748;2023-09-07T02:53:39;11.80;;;9.27;;
32094;SDS011;18608;53.688;10.748;2023-09-07T02:56:05;8.80;;;7.30;;
32094;SDS011;18608;53.688;10.748;2023-09-07T02:58:32;9.80;;;8.00;;
32094;SDS011;18608;53.688;10.748;2023-09-07T03:00:58;7.23;;;6.63;;
32094;SDS011;18608;53.688;10.748;2023-09-07T03:03:24;8.37;;;7.23;;
32094;SDS011;18608;53.688;10.748;2023-09-07T03:05:50;9.17;;;7.43;;
32094;SDS011;18608;53.688;10.748;2023-09-07T03:08:16;8.10;;;7.00;;
32094;SDS011;18608;53.688;10.748;2023-09-07T03:10:42;13.80;;;7.70;;
32094;SDS011;18608;53.688;10.748;2023-09-07T03:13:09;8.23;;;7.43;;
32094;SDS011;18608;53.688;10.748;2023-09-07T03:15:35;12.57;;;8.17;;
32094;SDS011;18608;53.688;10.748;2023-09-07T03:18:01;8.57;;;7.70;;
32094;SDS011;18608;53.688;10.748;2023-09-07T03:20:27;8.23;;;7.40;;
32094;SDS011;18608;53.688;10.748;2023-09-07T03:22:53;11.13;;;7.70;;
32094;SDS011;18608;53.688;10.748;2023-09-07T03:25:19;8.87;;;7.97;;
32094;SDS011;18608;53.688;10.748;2023-09-07T03:27:45;9.73;;;8.50;;
32094;SDS011;18608;53.688;10.748;2023-09-07T03:30:11;8.70;;;7.80;;
32094;SDS011;18608;53.688;10.748;2023-09-07T03:32:37;11.37;;;8.67;;
32094;SDS011;18608;53.688;10.748;2023-09-07T03:35:04;12.90;;;8.10;;
32094;SDS011;18608;53.688;10.748;2023-09-07T03:37:34;8.50;;;7.70;;
32094;SDS011;18608;53.688;10.748;2023-09-07T03:40:00;11.13;;;7.87;;
32094;SDS011;18608;53.688;10.748;2023-09-07T03:42:26;8.00;;;7.30;;
32094;SDS011;18608;53.688;10.748;2023-09-07T03:44:52;14.30;;;8.80;;
32094;SDS011;18608;53.688;10.748;2023-09-07T03:47:18;13.83;;;8.30;;
32094;SDS011;18608;53.688;10.748;2023-09-07T03:49:44;13.33;;;8.10;;
32094;SDS011;18608;53.688;10.748;2023-09-07T03:52:10;8.13;;;7.30;;
32094;SDS011;18608;53.688;10.748;2023-09-07T03:54:36;9.23;;;8.20;;
32094;SDS011;18608;53.688;10.748;2023-09-07T03:57:02;13.53;;;7.70;;
32094;SDS011;18608;53.688;10.748;2023-09-07T03:59:29;9.33;;;8.40;;
32094;SDS011;18608;53.688;10.748;2023-09-07T04:01:55;10.60;;;8.17;;
32094;SDS011;18608;53.688;10.748;2023-09-07T04:04:21;11.50;;;9.30;;
32094;SDS011;18608;53.688;10.748;2023-09-07T04:06:47;13.20;;;8.63;;
32094;SDS011;18608;53.688;10.748;2023-09-07T04:09:13;9.70;;;8.63;;
32094;SDS011;18608;53.688;10.748;2023-09-07T04:11:39;13.00;;;8.30;;
32094;SDS011;18608;53.688;10.748;2023-09-07T04:14:05;12.10;;;7.70;;
32094;SDS011;18608;53.688;10.748;2023-09-07T04:16:31;14.50;;;9.37;;
32094;SDS011;18608;53.688;10.748;2023-09-07T04:18:57;10.43;;;7.87;;
32094;SDS011;18608;53.688;10.748;2023-09-07T04:21:23;11.47;;;9.90;;
32094;SDS011;18608;53.688;10.748;2023-09-07T04:23:49;9.47;;;8.47;;
32094;SDS011;18608;53.688;10.748;2023-09-07T04:26:15;11.77;;;8.13;;
32094;SDS011;18608;53.688;10.748;2023-09-07T04:28:41;9.90;;;8.30;;
32094;SDS011;18608;53.688;10.748;2023-09-07T04:31:07;8.50;;;7.80;;
32094;SDS011;18608;53.688;10.748;2023-09-07T04:33:33;9.83;;;8.83;;
32094;SDS011;18608;53.688;10.748;2023-09-07T04:36:06;9.70;;;8.50;;
32094;SDS011;18608;53.688;10.748;2023-09-07T04:38:36;11.30;;;8.43;;
32094;SDS011;18608;53.688;10.748;2023-09-07T04:41:05;11.63;;;8.77;;
32094;SDS011;18608;53.688;10.748;2023-09-07T04:43:35;11.13;;;9.43;;
32094;SDS011;18608;53.688;10.748;2023-09-07T04:46:01;11.53;;;8.97;;
32094;SDS011;18608;53.688;10.748;2023-09-07T04:48:27;12.67;;;8.80;;
32094;SDS011;18608;53.688;10.748;2023-09-07T04:51:00;11.13;;;9.47;;
32094;SDS011;18608;53.688;10.748;2023-09-07T04:53:32;12.33;;;10.03;;
32094;SDS011;18608;53.688;10.748;2023-09-07T04:56:00;11.17;;;9.60;;
32094;SDS011;18608;53.688;10.748;2023-09-07T04:58:26;12.20;;;9.13;;
32094;SDS011;18608;53.688;10.748;2023-09-07T05:00:52;12.63;;;10.13;;
32094;SDS011;18608;53.688;10.748;2023-09-07T05:03:18;10.40;;;9.23;;
32094;SDS011;18608;53.688;10.748;2023-09-07T05:05:44;10.70;;;9.57;;
32094;SDS011;18608;53.688;10.748;2023-09-07T05:08:10;10.73;;;9.27;;
32094;SDS011;18608;53.688;10.748;2023-09-07T05:10:38;13.13;;;9.40;;
32094;SDS011;18608;53.688;10.748;2023-09-07T05:13:04;10.97;;;9.50;;
32094;SDS011;18608;53.688;10.748;2023-09-07T05:15:30;9.90;;;8.40;;
32094;SDS011;18608;53.688;10.748;2023-09-07T05:17:56;10.90;;;9.43;;
32094;SDS011;18608;53.688;10.748;2023-09-07T05:20:22;13.43;;;7.87;;
32094;SDS011;18608;53.688;10.748;2023-09-07T05:22:48;9.47;;;8.20;;
32094;SDS011;18608;53.688;10.748;2023-09-07T05:25:14;11.33;;;8.87;;
32094;SDS011;18608;53.688;10.748;2023-09-07T05:27:40;9.80;;;8.40;;
32094;SDS011;18608;53.688;10.748;2023-09-07T05:30:06;10.23;;;8.87;;
32094;SDS011;18608;53.688;10.748;2023-09-07T05:32:32;10.93;;;8.37;;
32094;SDS011;18608;53.688;10.748;2023-09-07T05:34:58;11.70;;;9.93;;
32094;SDS011;18608;53.688;10.748;2023-09-07T05:37:24;11.93;;;9.50;;
32094;SDS011;18608;53.688;10.748;2023-09-07T05:39:50;26.23;;;10.57;;
32094;SDS011;18608;53.688;10.748;2023-09-07T05:42:16;13.57;;;10.10;;
32094;SDS011;18608;53.688;10.748;2023-09-07T05:44:42;15.77;;;9.67;;
32094;SDS011;18608;53.688;10.748;2023-09-07T05:47:08;8.30;;;7.50;;
32094;SDS011;18608;53.688;10.748;2023-09-07T05:49:34;11.33;;;8.77;;
32094;SDS011;18608;53.688;10.748;2023-09-07T05:52:00;12.43;;;8.70;;
32094;SDS011;18608;53.688;10.748;2023-09-07T05:54:26;8.93;;;7.80;;
32094;SDS011;18608;53.688;10.748;2023-09-07T05:56:52;10.80;;;8.37;;
32094;SDS011;18608;53.688;10.748;2023-09-07T05:59:18;11.10;;;7.90;;
32094;SDS011;18608;53.688;10.748;2023-09-07T06:01:44;9.23;;;7.17;;
32094;SDS011;18608;53.688;10.748;2023-09-07T06:04:10;8.57;;;7.77;;
32094;SDS011;18608;53.688;10.748;2023-09-07T06:06:36;10.83;;;7.37;;
32094;SDS011;18608;53.688;10.748;2023-09-07T06:09:02;8.50;;;7.07;;
32094;SDS011;18608;53.688;10.748;2023-09-07T06:11:29;7.27;;;6.47;;
32094;SDS011;18608;53.688;10.748;2023-09-07T06:13:56;7.87;;;7.07;;
32094;SDS011;18608;53.688;10.748;2023-09-07T06:16:22;11.50;;;8.03;;
32094;SDS011;18608;53.688;10.748;2023-09-07T06:18:48;10.23;;;7.57;;
32094;SDS011;18608;53.688;10.748;2023-09-07T06:21:14;7.80;;;7.00;;
32094;SDS011;18608;53.688;10.748;2023-09-07T06:23:40;8.30;;;7.40;;
32094;SDS011;18608;53.688;10.748;2023-09-07T06:26:07;9.93;;;7.30;;
32094;SDS011;18608;53.688;10.748;2023-09-07T06:28:33;8.60;;;6.90;;
32094;SDS011;18608;53.688;10.748;2023-09-07T06:30:59;14.00;;;7.40;;
32094;SDS011;18608;53.688;10.748;2023-09-07T06:33:25;7.77;;;6.97;;
32094;SDS011;18608;53.688;10.748;2023-09-07T06:35:51;10.23;;;7.87;;
32094;SDS011;18608;53.688;10.748;2023-09-07T06:38:17;10.47;;;7.50;;
32094;SDS011;18608;53.688;10.748;2023-09-07T06:40:49;8.43;;;6.87;;
32094;SDS011;18608;53.688;10.748;2023-09-07T06:43:15;11.17;;;6.60;;
32094;SDS011;18608;53.688;10.748;2023-09-07T06:45:42;10.40;;;6.70;;
32094;SDS011;18608;53.688;10.748;2023-09-07T06:48:07;8.20;;;7.00;;
32094;SDS011;18608;53.688;10.748;2023-09-07T06:50:33;10.70;;;6.37;;
32094;SDS011;18608;53.688;10.748;2023-09-07T06:52:59;7.50;;;6.70;;
32094;SDS011;18608;53.688;10.748;2023-09-07T06:55:25;8.63;;;7.50;;
32094;SDS011;18608;53.688;10.748;2023-09-07T06:57:53;10.33;;;7.00;;
32094;SDS011;18608;53.688;10.748;2023-09-07T07:00:19;16.33;;;7.03;;
32094;SDS011;18608;53.688;10.748;2023-09-07T07:02:45;13.27;;;7.60;;
32094;SDS011;18608;53.688;10.748;2023-09-07T07:05:11;10.00;;;7.43;;
32094;SDS011;18608;53.688;10.748;2023-09-07T07:07:37;11.07;;;7.20;;
32094;SDS011;18608;53.688;10.748;2023-09-07T07:10:03;9.80;;;7.20;;
32094;SDS011;18608;53.688;10.748;2023-09-07T07:12:30;6.30;;;5.90;;
32094;SDS011;18608;53.688;10.748;2023-09-07T07:14:59;7.80;;;6.07;;
32094;SDS011;18608;53.688;10.748;2023-09-07T07:17:25;6.50;;;5.97;;
32094;SDS011;18608;53.688;10.748;2023-09-07T07:19:51;12.40;;;6.27;;
32094;SDS011;18608;53.688;10.748;2023-09-07T07:22:17;11.90;;;5.93;;
32094;SDS011;18608;53.688;10.748;2023-09-07T07:24:43;7.70;;;6.90;;
32094;SDS011;18608;53.688;10.748;2023-09-07T07:27:09;10.10;;;7.30;;
32094;SDS011;18608;53.688;10.748;2023-09-07T07:29:36;9.90;;;6.70;;
32094;SDS011;18608;53.688;10.748;2023-09-07T07:32:02;11.93;;;6.90;;
32094;SDS011;18608;53.688;10.748;2023-09-07T07:34:28;5.90;;;5.30;;
32094;SDS011;18608;53.688;10.748;2023-09-07T07:36:54;10.27;;;8.03;;
32094;SDS011;18608;53.688;10.748;2023-09-07T07:39:20;8.83;;;5.70;;
32094;SDS011;18608;53.688;10.748;2023-09-07T07:41:46;6.73;;;6.10;;
32094;SDS011;18608;53.688;10.748;2023-09-07T07:44:12;7.43;;;6.50;;
32094;SDS011;18608;53.688;10.748;2023-09-07T07:46:38;6.10;;;5.00;;
32094;SDS011;18608;53.688;10.748;2023-09-07T07:49:04;6.17;;;5.60;;
32094;SDS011;18608;53.688;10.748;2023-09-07T07:51:30;9.43;;;6.00;;
32094;SDS011;18608;53.688;10.748;2023-09-07T07:53:55;6.53;;;5.90;;
32094;SDS011;18608;53.688;10.748;2023-09-07T07:56:23;8.27;;;6.13;;
32094;SDS011;18608;53.688;10.748;2023-09-07T07:58:48;6.67;;;5.70;;
32094;SDS011;18608;53.688;10.748;2023-09-07T08:01:18;8.93;;;6.10;;
32094;SDS011;18608;53.688;10.748;2023-09-07T08:03:48;6.30;;;5.33;;
32094;SDS011;18608;53.688;10.748;2023-09-07T08:06:14;12.80;;;7.17;;
32094;SDS011;18608;53.688;10.748;2023-09-07T08:08:40;15.20;;;5.33;;
32094;SDS011;18608;53.688;10.748;2023-09-07T08:11:06;11.73;;;5.13;;
32094;SDS011;18608;53.688;10.748;2023-09-07T08:13:34;6.50;;;5.60;;
32094;SDS011;18608;53.688;10.748;2023-09-07T08:16:00;7.60;;;5.73;;
32094;SDS011;18608;53.688;10.748;2023-09-07T08:18:27;5.77;;;5.27;;
32094;SDS011;18608;53.688;10.748;2023-09-07T08:20:53;7.27;;;5.10;;
32094;SDS011;18608;53.688;10.748;2023-09-07T08:23:20;5.07;;;4.67;;
32094;SDS011;18608;53.688;10.748;2023-09-07T08:25:47;7.03;;;5.77;;
32094;SDS011;18608;53.688;10.748;2023-09-07T08:28:13;8.03;;;5.90;;
32094;SDS011;18608;53.688;10.748;2023-09-07T08:30:41;8.13;;;5.17;;
32094;SDS011;18608;53.688;10.748;2023-09-07T08:33:07;6.47;;;5.87;;
32094;SDS011;18608;53.688;10.748;2023-09-07T08:35:33;5.97;;;5.20;;
32094;SDS011;18608;53.688;10.748;2023-09-07T08:38:00;8.33;;;5.77;;
32094;SDS011;18608;53.688;10.748;2023-09-07T08:40:30;11.17;;;6.90;;
32094;SDS011;18608;53.688;10.748;2023-09-07T08:43:00;6.17;;;5.57;;
32094;SDS011;18608;53.688;10.748;2023-09-07T08:45:29;5.80;;;4.73;;
32094;SDS011;18608;53.688;10.748;2023-09-07T08:47:58;5.30;;;4.90;;
32094;SDS011;18608;53.688;10.748;2023-09-07T08:50:24;6.53;;;5.93;;
32094;SDS011;18608;53.688;10.748;2023-09-07T08:52:51;5.47;;;4.70;;
32094;SDS011;18608;53.688;10.748;2023-09-07T08:55:18;11.50;;;5.20;;
32094;SDS011;18608;53.688;10.748;2023-09-07T08:57:44;8.17;;;4.70;;
32094;SDS011;18608;53.688;10.748;2023-09-07T09:00:10;8.63;;;5.90;;
32094;SDS011;18608;53.688;10.748;2023-09-07T09:02:41;5.97;;;5.37;;
32094;SDS011;18608;53.688;10.748;2023-09-07T09:05:08;7.70;;;5.73;;
32094;SDS011;18608;53.688;10.748;2023-09-07T09:07:34;4.40;;;4.07;;
32094;SDS011;18608;53.688;10.748;2023-09-07T09:10:07;6.33;;;4.70;;
32094;SDS011;18608;53.688;10.748;2023-09-07T09:12:33;7.63;;;4.90;;
32094;SDS011;18608;53.688;10.748;2023-09-07T09:15:00;5.70;;;5.23;;
32094;SDS011;18608;53.688;10.748;2023-09-07T09:17:28;5.43;;;4.40;;
32094;SDS011;18608;53.688;10.748;2023-09-07T09:19:55;8.70;;;5.10;;
32094;SDS011;18608;53.688;10.748;2023-09-07T09:22:21;8.20;;;4.97;;
32094;SDS011;18608;53.688;10.748;2023-09-07T09:24:47;7.07;;;5.20;;
32094;SDS011;18608;53.688;10.748;2023-09-07T09:27:13;6.20;;;5.40;;
32094;SDS011;18608;53.688;10.748;2023-09-07T09:29:39;5.80;;;5.30;;
32094;SDS011;18608;53.688;10.748;2023-09-07T09:32:09;6.40;;;5.80;;
32094;SDS011;18608;53.688;10.748;2023-09-07T09:34:35;11.23;;;5.37;;
32094;SDS011;18608;53.688;10.748;2023-09-07T09:37:02;5.33;;;4.83;;
32094;SDS011;18608;53.688;10.748;2023-09-07T09:39:28;12.00;;;5.40;;
32094;SDS011;18608;53.688;10.748;2023-09-07T09:41:54;5.20;;;4.63;;
32094;SDS011;18608;53.688;10.748;2023-09-07T09:44:21;5.80;;;4.70;;
32094;SDS011;18608;53.688;10.748;2023-09-07T09:46:51;5.80;;;5.20;;
32094;SDS011;18608;53.688;10.748;2023-09-07T09:49:21;8.00;;;5.20;;
32094;SDS011;18608;53.688;10.748;2023-09-07T09:51:50;6.00;;;4.50;;
32094;SDS011;18608;53.688;10.748;2023-09-07T09:54:19;6.47;;;5.17;;
32094;SDS011;18608;53.688;10.748;2023-09-07T09:56:45;19.00;;;5.60;;
32094;SDS011;18608;53.688;10.748;2023-09-07T09:59:12;10.17;;;5.63;;
32094;SDS011;18608;53.688;10.748;2023-09-07T10:01:46;5.07;;;4.60;;
32094;SDS011;18608;53.688;10.748;2023-09-07T10:04:15;5.23;;;4.70;;
32094;SDS011;18608;53.688;10.748;2023-09-07T10:06:56;4.60;;;4.23;;
32094;SDS011;18608;53.688;10.748;2023-09-07T10:09:29;6.17;;;5.57;;
32094;SDS011;18608;53.688;10.748;2023-09-07T10:11:59;16.47;;;4.63;;
32094;SDS011;18608;53.688;10.748;2023-09-07T10:14:25;5.63;;;4.30;;
32094;SDS011;18608;53.688;10.748;2023-09-07T10:16:52;10.33;;;5.07;;
32094;SDS011;18608;53.688;10.748;2023-09-07T10:19:24;10.20;;;4.20;;
32094;SDS011;18608;53.688;10.748;2023-09-07T10:21:52;4.27;;;3.77;;
32094;SDS011;18608;53.688;10.748;2023-09-07T10:26:58;5.33;;;4.23;;
32094;SDS011;18608;53.688;10.748;2023-09-07T10:29:28;4.53;;;4.13;;
32094;SDS011;18608;53.688;10.748;2023-09-07T10:31:54;5.33;;;3.63;;
32094;SDS011;18608;53.688;10.748;2023-09-07T10:34:20;8.87;;;4.23;;
32094;SDS011;18608;53.688;10.748;2023-09-07T10:36:47;4.30;;;4.00;;
32094;SDS011;18608;53.688;10.748;2023-09-07T10:39:17;4.63;;;4.10;;
32094;SDS011;18608;53.688;10.748;2023-09-07T10:41:44;9.23;;;4.37;;
32094;SDS011;18608;53.688;10.748;2023-09-07T10:44:10;6.77;;;3.93;;
32094;SDS011;18608;53.688;10.748;2023-09-07T10:46:38;5.67;;;4.53;;
32094;SDS011;18608;53.688;10.748;2023-09-07T10:49:06;4.70;;;4.20;;
32094;SDS011;18608;53.688;10.748;2023-09-07T10:51:39;5.47;;;3.40;;
32094;SDS011;18608;53.688;10.748;2023-09-07T10:54:13;4.47;;;4.17;;
32094;SDS011;18608;53.688;10.748;2023-09-07T10:56:43;6.73;;;3.80;;
32094;SDS011;18608;53.688;10.748;2023-09-07T10:59:10;5.23;;;4.30;;
32094;SDS011;18608;53.688;10.748;2023-09-07T11:01:36;4.63;;;3.63;;
32094;SDS011;18608;53.688;10.748;2023-09-07T11:04:02;4.77;;;3.97;;
32094;SDS011;18608;53.688;10.748;2023-09-07T11:06:30;7.17;;;3.90;;
32094;SDS011;18608;53.688;10.748;2023-09-07T11:08:59;6.83;;;4.20;;
32094;SDS011;18608;53.688;10.748;2023-09-07T11:11:25;6.67;;;3.80;;
32094;SDS011;18608;53.688;10.748;2023-09-07T11:13:52;5.53;;;3.83;;
32094;SDS011;18608;53.688;10.748;2023-09-07T11:16:18;6.90;;;4.90;;
32094;SDS011;18608;53.688;10.748;2023-09-07T11:18:44;4.90;;;4.50;;
32094;SDS011;18608;53.688;10.748;2023-09-07T11:21:11;5.73;;;5.23;;
32094;SDS011;18608;53.688;10.748;2023-09-07T11:23:37;4.90;;;4.47;;
32094;SDS011;18608;53.688;10.748;2023-09-07T11:26:12;5.90;;;4.33;;
32094;SDS011;18608;53.688;10.748;2023-09-07T11:28:40;3.83;;;3.53;;
32094;SDS011;18608;53.688;10.748;2023-09-07T11:31:06;11.50;;;3.40;;
32094;SDS011;18608;53.688;10.748;2023-09-07T11:33:33;6.23;;;4.27;;
32094;SDS011;18608;53.688;10.748;2023-09-07T11:35:59;3.93;;;3.63;;
32094;SDS011;18608;53.688;10.748;2023-09-07T11:38:29;4.23;;;3.83;;
32094;SDS011;18608;53.688;10.748;2023-09-07T11:41:01;6.27;;;3.80;;
32094;SDS011;18608;53.688;10.748;2023-09-07T11:43:28;8.27;;;3.80;;
32094;SDS011;18608;53.688;10.748;2023-09-07T11:45:54;4.00;;;3.60;;
32094;SDS011;18608;53.688;10.748;2023-09-07T11:48:20;4.97;;;4.40;;
32094;SDS011;18608;53.688;10.748;2023-09-07T11:50:46;3.97;;;3.57;;
32094;SDS011;18608;53.688;10.748;2023-09-07T11:53:12;8.03;;;4.10;;
32094;SDS011;18608;53.688;10.748;2023-09-07T11:55:38;3.43;;;3.13;;
32094;SDS011;18608;53.688;10.748;2023-09-07T11:58:06;4.23;;;3.83;;
32094;SDS011;18608;53.688;10.748;2023-09-07T12:00:32;4.93;;;3.23;;
32094;SDS011;18608;53.688;10.748;2023-09-07T12:02:58;8.70;;;4.10;;
32094;SDS011;18608;53.688;10.748;2023-09-07T12:05:24;3.50;;;3.20;;
32094;SDS011;18608;53.688;10.748;2023-09-07T12:07:50;5.83;;;3.53;;
32094;SDS011;18608;53.688;10.748;2023-09-07T12:10:16;6.30;;;3.60;;
32094;SDS011;18608;53.688;10.748;2023-09-07T12:12:43;5.67;;;4.07;;
32094;SDS011;18608;53.688;10.748;2023-09-07T12:15:09;5.60;;;3.33;;
32094;SDS011;18608;53.688;10.748;2023-09-07T12:17:38;3.93;;;3.53;;
32094;SDS011;18608;53.688;10.748;2023-09-07T12:20:05;4.60;;;4.17;;
32094;SDS011;18608;53.688;10.748;2023-09-07T12:22:34;4.83;;;3.70;;
32094;SDS011;18608;53.688;10.748;2023-09-07T12:25:02;4.23;;;3.90;;
32094;SDS011;18608;53.688;10.748;2023-09-07T12:27:28;5.80;;;3.67;;
32094;SDS011;18608;53.688;10.748;2023-09-07T12:29:54;5.80;;;4.40;;
32094;SDS011;18608;53.688;10.748;2023-09-07T12:32:20;4.53;;;4.10;;
32094;SDS011;18608;53.688;10.748;2023-09-07T12:34:46;4.20;;;3.90;;
32094;SDS011;18608;53.688;10.748;2023-09-07T12:37:12;4.70;;;3.60;;
32094;SDS011;18608;53.688;10.748;2023-09-07T12:39:38;6.63;;;3.63;;
32094;SDS011;18608;53.688;10.748;2023-09-07T12:42:04;5.67;;;4.73;;
32094;SDS011;18608;53.688;10.748;2023-09-07T12:44:30;4.07;;;3.77;;
32094;SDS011;18608;53.688;10.748;2023-09-07T12:46:57;5.90;;;3.70;;
32094;SDS011;18608;53.688;10.748;2023-09-07T12:49:23;8.13;;;4.00;;
32094;SDS011;18608;53.688;10.748;2023-09-07T12:51:49;7.70;;;3.70;;
32094;SDS011;18608;53.688;10.748;2023-09-07T12:54:15;4.97;;;4.50;;
32094;SDS011;18608;53.688;10.748;2023-09-07T12:56:41;6.13;;;4.30;;
32094;SDS011;18608;53.688;10.748;2023-09-07T12:59:07;4.33;;;3.93;;
32094;SDS011;18608;53.688;10.748;2023-09-07T13:01:33;7.37;;;4.30;;
32094;SDS011;18608;53.688;10.748;2023-09-07T13:03:59;5.23;;;4.20;;
32094;SDS011;18608;53.688;10.748;2023-09-07T13:06:25;4.20;;;3.83;;
32094;SDS011;18608;53.688;10.748;2023-09-07T13:08:51;13.23;;;4.37;;
32094;SDS011;18608;53.688;10.748;2023-09-07T13:11:17;7.00;;;4.10;;
32094;SDS011;18608;53.688;10.748;2023-09-07T13:13:43;6.10;;;4.17;;
32094;SDS011;18608;53.688;10.748;2023-09-07T13:16:09;4.00;;;3.53;;
32094;SDS011;18608;53.688;10.748;2023-09-07T13:18:35;4.70;;;3.63;;
32094;SDS011;18608;53.688;10.748;2023-09-07T13:21:01;16.00;;;4.70;;
32094;SDS011;18608;53.688;10.748;2023-09-07T13:23:27;6.93;;;3.53;;
32094;SDS011;18608;53.688;10.748;2023-09-07T13:25:56;5.93;;;3.17;;
32094;SDS011;18608;53.688;10.748;2023-09-07T13:28:22;8.77;;;3.87;;
32094;SDS011;18608;53.688;10.748;2023-09-07T13:30:50;5.87;;;3.80;;
32094;SDS011;18608;53.688;10.748;2023-09-07T13:33:15;3.93;;;3.53;;
32094;SDS011;18608;53.688;10.748;2023-09-07T13:35:41;8.83;;;4.20;;
32094;SDS011;18608;53.688;10.748;2023-09-07T13:38:08;3.90;;;3.23;;
32094;SDS011;18608;53.688;10.748;2023-09-07T13:40:34;4.60;;;3.57;;
32094;SDS011;18608;53.688;10.748;2023-09-07T13:43:00;16.50;;;4.00;;
32094;SDS011;18608;53.688;10.748;2023-09-07T13:45:26;4.83;;;3.83;;
32094;SDS011;18608;53.688;10.748;2023-09-07T13:47:54;3.53;;;3.23;;
32094;SDS011;18608;53.688;10.748;2023-09-07T13:50:20;6.83;;;3.03;;
32094;SDS011;18608;53.688;10.748;2023-09-07T13:52:46;6.50;;;3.63;;
32094;SDS011;18608;53.688;10.748;2023-09-07T13:55:12;5.27;;;4.47;;
32094;SDS011;18608;53.688;10.748;2023-09-07T13:57:38;5.67;;;3.40;;
32094;SDS011;18608;53.688;10.748;2023-09-07T14:00:03;7.83;;;3.30;;
32094;SDS011;18608;53.688;10.748;2023-09-07T14:02:30;6.20;;;3.30;;
32094;SDS011;18608;53.688;10.748;2023-09-07T14:04:57;5.53;;;4.27;;
32094;SDS011;18608;53.688;10.748;2023-09-07T14:07:23;6.20;;;3.60;;
32094;SDS011;18608;53.688;10.748;2023-09-07T14:09:53;8.03;;;3.50;;
32094;SDS011;18608;53.688;10.748;2023-09-07T14:12:20;6.73;;;3.43;;
32094;SDS011;18608;53.688;10.748;2023-09-07T14:14:46;3.50;;;3.20;;
32094;SDS011;18608;53.688;10.748;2023-09-07T14:17:12;5.33;;;3.67;;
32094;SDS011;18608;53.688;10.748;2023-09-07T14:19:39;4.20;;;3.80;;
32094;SDS011;18608;53.688;10.748;2023-09-07T14:22:05;4.00;;;3.30;;
32094;SDS011;18608;53.688;10.748;2023-09-07T14:24:30;4.03;;;3.73;;
32094;SDS011;18608;53.688;10.748;2023-09-07T14:26:56;6.33;;;3.70;;
32094;SDS011;18608;53.688;10.748;2023-09-07T14:29:22;3.50;;;3.23;;
32094;SDS011;18608;53.688;10.748;2023-09-07T14:31:48;5.40;;;3.97;;
32094;SDS011;18608;53.688;10.748;2023-09-07T14:34:14;7.00;;;3.83;;